Flight Track Log - Related Links

Times and Time Zones

All times are in EDT time to prevent confusion due to time zone crossing. See the DAL5814 flight status page for this flight to view local times or setup timezone preferences in your user account.

Time Position Orientation Groundspeed Altitude Reporting Facility
EDT Latitude Longitude Course Direction KTS MPH feet Rate Location/Type
Sun 11:00:23 AM 52.1667 -106.7500 180° South 130 150 2,900  Level Winnipeg Center
Sun 11:01:23 AM 52.1500 -106.8333 256° West 210 242 4,700 2,050 Climbing Winnipeg Center
Sun 11:02:23 AM 52.0833 -106.8000 163° South 270 311 7,000 2,900 Climbing Winnipeg Center
Sun 11:03:00 AM 51.9019 -106.0580 142° Southeast  Level Estimated
Sun 11:03:23 AM 52.0167 -106.7000 137° Southeast 300 345 10,500  Level Winnipeg Center
Sun 11:04:00 AM 51.8341 -105.8988 144° Southeast  Level Estimated
Sun 11:04:23 AM 51.9500 -106.6000 137° Southeast 350 403 12,500  Level Winnipeg Center
Sun 11:05:00 AM 51.7146 -105.8992 180° South  Level FlightAware Approximate
Sun 11:05:23 AM 51.8667 -106.5000 143° Southeast 360 414 15,500  Level Winnipeg Center
Sun 11:06:23 AM 51.8000 -106.3833 133° Southeast 380 437 18,000 2,300 Climbing Winnipeg Center
Sun 11:07:23 AM 51.7167 -106.2833 143° Southeast 390 449 20,100 2,600 Climbing Winnipeg Center
Sun 11:08:23 AM 51.6333 -106.1833 143° Southeast 380 437 23,200 2,350 Climbing Winnipeg Center
Sun 11:09:23 AM 51.5500 -106.0500 135° Southeast 380 437 24,800 1,800 Climbing Winnipeg Center
Sun 11:10:23 AM 51.4500 -105.9500 148° Southeast 390 449 26,800 1,550 Climbing Winnipeg Center
Sun 11:11:23 AM 51.3833 -105.8333 132° Southeast 390 449 27,900 1,050 Climbing Winnipeg Center
Sun 11:12:23 AM 51.2833 -105.7333 148° Southeast 410 472 28,900 1,100 Climbing Winnipeg Center
Sun 11:13:23 AM 51.2000 -105.6000 135° Southeast 420 483 30,100 1,050 Climbing Winnipeg Center
Sun 11:14:23 AM 51.1000 -105.4833 144° Southeast 420 483 31,000 450 Climbing Winnipeg Center
Sun 11:15:23 AM 51.0167 -105.3500 135° Southeast 440 506 31,000  Level Winnipeg Center
Sun 11:16:23 AM 50.9000 -105.2333 148° Southeast 440 506 31,000  Level Winnipeg Center
Sun 11:17:23 AM 50.8167 -105.1333 143° Southeast 450 518 31,000  Level Winnipeg Center
Sun 11:18:23 AM 50.7167 -105.0167 144° Southeast 450 518 31,000  Level Winnipeg Center
Sun 11:19:23 AM 50.6500 -104.8333 120° Southeast 450 518 31,000  Level Winnipeg Center
Sun 11:20:23 AM 50.5833 -104.6667 122° Southeast 450 518 31,000  Level Winnipeg Center
Sun 11:21:23 AM 50.5000 -104.5000 128° Southeast 450 518 31,000  Level Winnipeg Center
Sun 11:22:23 AM 50.4333 -104.3333 122° Southeast 460 529 31,000  Level Winnipeg Center
Sun 11:23:23 AM 50.3667 -104.1833 125° Southeast 460 529 31,000  Level Winnipeg Center
Sun 11:24:23 AM 50.2833 -103.9833 123° Southeast 460 529 31,000  Level Winnipeg Center
Sun 11:25:23 AM 50.2333 -103.8500 120° Southeast 460 529 31,000  Level Winnipeg Center
Sun 11:26:23 AM 50.1500 -103.6833 128° Southeast 460 529 31,000  Level Winnipeg Center
Sun 11:27:23 AM 50.0833 -103.5167 122° Southeast 460 529 31,000  Level Winnipeg Center
Sun 11:28:23 AM 50.0000 -103.3500 128° Southeast 460 529 31,000  Level Winnipeg Center
Sun 11:29:23 AM 49.9333 -103.1833 122° Southeast 460 529 31,000  Level Winnipeg Center
Sun 11:30:23 AM 49.8500 -103.0167 128° Southeast 470 541 31,000  Level Winnipeg Center
Sun 11:31:23 AM 49.7833 -102.8500 122° Southeast 470 541 31,000  Level Winnipeg Center
Sun 11:32:23 AM 49.7000 -102.6833 128° Southeast 470 541 31,000  Level Winnipeg Center
Sun 11:33:23 AM 49.6333 -102.5167 122° Southeast 470 541 31,000  Level Winnipeg Center
Sun 11:34:23 AM 49.5500 -102.3333 125° Southeast 480 552 31,000 100 Level Winnipeg Center
Sun 11:35:23 AM 49.4833 -102.1667 122° Southeast 490 564 31,200 850 Climbing Winnipeg Center
Sun 11:36:23 AM 49.4000 -102.0000 127° Southeast 490 564 32,700 900 Climbing Winnipeg Center
Sun 11:37:23 AM 49.3167 -101.8500 130° Southeast 480 552 33,000 150 Climbing Winnipeg Center
Sun 11:38:23 AM 49.2333 -101.6500 122° Southeast 480 552 33,000  Level Winnipeg Center
Sun 11:39:23 AM 49.1500 -101.5000 130° Southeast 480 552 33,000  Level Winnipeg Center
Sun 11:40:23 AM 49.0833 -101.3333 121° Southeast 480 552 33,000 -100 Level Winnipeg Center
Sun 11:41:23 AM 49.0000 -101.1667 127° Southeast 480 552 32,800 -600 Descending Winnipeg Center
Sun 11:42:23 AM 48.9333 -101.0167 124° Southeast 470 541 31,800 -900 Descending Winnipeg Center
Sun 11:43:23 AM 48.8833 -100.8333 112° Southeast 460 529 31,000 -444 Descending Winnipeg Center
Sun 11:44:11 AM 48.8411 -100.7131 118° Southeast 463 533 31,000  Level Minneapolis Center
Sun 11:45:12 AM 48.7744 -100.5397 120° Southeast 472 543 31,000  Level Minneapolis Center
Sun 11:46:14 AM 48.7056 -100.3675 121° Southeast 474 545 31,000  Level Minneapolis Center
Sun 11:47:15 AM 48.6389 -100.1956 120° Southeast 474 545 31,000  Level Minneapolis Center
Sun 11:48:16 AM 48.5572 -99.9894 121° Southeast 475 547 31,000  Level Minneapolis Center
Sun 11:49:18 AM 48.4894 -99.8169 121° Southeast 476 548 31,000  Level Minneapolis Center
Sun 11:50:19 AM 48.4194 -99.6453 122° Southeast 477 549 31,000  Level Minneapolis Center
Sun 11:51:20 AM 48.3500 -99.4742 121° Southeast 478 550 31,000  Level Minneapolis Center
Sun 11:52:21 AM 48.2803 -99.3017 121° Southeast 482 555 31,000  Level Minneapolis Center
Sun 11:53:23 AM 48.2108 -99.1283 121° Southeast 482 555 31,000 -390 Level Minneapolis Center
Sun 11:54:24 AM 48.1422 -98.9558 121° Southeast 483 556 30,200 -984 Descending Minneapolis Center
Sun 11:55:25 AM 48.0744 -98.7908 122° Southeast 476 548 29,000 -585 Descending Minneapolis Center
Sun 11:56:27 AM 48.0069 -98.6278 122° Southeast 468 539 29,000  Level Minneapolis Center
Sun 11:57:28 AM 47.9383 -98.4658 122° Southeast 467 537 29,000  Level Minneapolis Center
Sun 11:58:29 AM 47.8511 -98.2628 123° Southeast 473 544 29,000  Level Minneapolis Center
Sun 11:59:31 AM 47.7786 -98.0906 122° Southeast 482 555 29,000  Level Minneapolis Center
Sun 12:00:32 PM 47.7053 -97.9178 122° Southeast 486 559 29,000  Level Minneapolis Center
Sun 12:01:33 PM 47.6294 -97.7425 123° Southeast 487 560 29,000  Level Minneapolis Center
Sun 12:02:35 PM 47.5556 -97.5689 122° Southeast 488 562 29,000  Level Minneapolis Center
Sun 12:03:36 PM 47.4819 -97.3989 123° Southeast 488 562 29,000  Level Minneapolis Center
Sun 12:04:38 PM 47.4086 -97.2311 123° Southeast 488 562 29,000  Level Minneapolis Center
Sun 12:05:39 PM 47.3331 -97.0619 123° Southeast 488 562 29,000  Level Minneapolis Center
Sun 12:06:40 PM 47.2600 -96.8931 122° Southeast 491 565 29,000  Level Minneapolis Center
Sun 12:07:42 PM 47.1856 -96.7258 123° Southeast 491 565 29,000  Level Minneapolis Center
Sun 12:08:43 PM 47.1072 -96.5608 125° Southeast 492 566 29,000  Level Minneapolis Center
Sun 12:09:44 PM 47.0325 -96.3947 123° Southeast 492 566 29,000  Level Minneapolis Center
Sun 12:10:46 PM 46.9425 -96.1942 123° Southeast 492 566 29,000  Level Minneapolis Center
Sun 12:11:47 PM 46.8661 -96.0294 124° Southeast 491 565 29,000  Level Minneapolis Center
Sun 12:12:48 PM 46.7842 -95.8756 128° Southeast 485 558 29,000  Level Minneapolis Center
Sun 12:13:50 PM 46.7033 -95.7192 127° Southeast 484 557 29,000  Level Minneapolis Center
Sun 12:14:51 PM 46.6203 -95.5639 128° Southeast 484 557 29,000  Level Minneapolis Center
Sun 12:15:52 PM 46.5336 -95.3950 127° Southeast 486 559 29,000  Level Minneapolis Center
Sun 12:16:54 PM 46.4494 -95.2425 129° Southeast 485 558 29,000  Level Minneapolis Center
Sun 12:17:55 PM 46.3675 -95.0878 127° Southeast 485 558 29,000  Level Minneapolis Center
Sun 12:18:56 PM 46.2850 -94.9344 128° Southeast 485 558 29,000  Level Minneapolis Center
Sun 12:19:58 PM 46.2017 -94.7828 128° Southeast 485 558 29,000  Level Minneapolis Center
Sun 12:20:59 PM 46.1172 -94.6278 128° Southeast 485 558 29,000 -295 Level Minneapolis Center
Sun 12:22:00 PM 46.0336 -94.4739 128° Southeast 486 559 28,400 -1,707 Descending Minneapolis Center
Sun 12:23:02 PM 45.9511 -94.3225 128° Southeast 484 557 25,500 -3,073 Descending Minneapolis Center
Sun 12:24:03 PM 45.8556 -94.1511 129° Southeast 463 533 22,100 -3,000 Descending Minneapolis Center
Sun 12:25:04 PM 45.7806 -94.0172 129° Southeast 439 505 19,400 -2,537 Descending Minneapolis Center
Sun 12:26:06 PM 45.7108 -93.8914 128° Southeast 406 467 16,900 -2,341 Descending Minneapolis Center
Sun 12:27:07 PM 45.6447 -93.7739 129° Southeast 385 443 14,600 -2,213 Descending Minneapolis Center
Sun 12:28:08 PM 45.5814 -93.6625 129° Southeast 365 420 12,400 -1,756 Descending Minneapolis Center
Sun 12:29:10 PM 45.5142 -93.5686 136° Southeast 346 398 11,000 -976 Descending Minneapolis Center
Sun 12:30:11 PM 45.4311 -93.5367 165° South 309 356 10,400 -1,279 Descending Minneapolis Center
Sun 12:31:12 PM 45.3578 -93.5286 176° South 270 311 8,400 -1,659 Descending Minneapolis Center
Sun 12:32:14 PM 45.2806 -93.5175 174° South 274 315 7,000 -732 Descending Minneapolis Center
Sun 12:33:15 PM 45.1897 -93.5050 174° South 274 315 6,900 -780 Descending Minneapolis Center
Sun 12:34:17 PM 45.1131 -93.4908 173° South 276 318 5,400 -1,415 Descending Minneapolis Center
Sun 12:35:18 PM 45.0489 -93.4367 149° Southeast 272 313 4,000 -1,180 Descending Minneapolis Center
Sun 12:36:19 PM 44.9894 -93.3867 149° Southeast 252 290 3,000 -537 Descending Minneapolis Center
Sun 12:37:21 PM 44.9458 -93.3461 147° Southeast 187 215 2,900 -439 Descending Minneapolis Center
Sun 12:38:22 PM 44.9253 -93.2950 120° Southeast 150 173 2,100 -738 Descending Minneapolis Center
Sun 12:39:23 PM 44.9058 -93.2508 122° Southeast 137 158 1,400 -689 Descending Minneapolis Center

Login

Don't have an account? Register now (free) for customized features, flight alerts, and more!